Weather at Palmahim Air Base

Public forecast

Using degrees Celsius for public forecast. Weather courtesy of forecast.io.

Closest aviation weather report (METAR) to Palmahim Air Base

Closest report is Ben Gurion International Airport, 12.1 nm (22.4 km) NE.

2024/02/24 03:20 (retrieved 15 minutes ago)

LLBG 240320Z VRB03KT 8000 NSC 15/12 Q1017 TEMPO 5000 BR NSC RMK BKN090

Closest aviation forecast (TAF) to Palmahim Air Base

Forecast is more than 12 hours old.

Closest forecast is Damascus International Airport, 129.5 nm (239.8 km) NE.

2024/02/22 18:33 (retrieved 1 day ago)

TAF OSDI 221800Z 2218/2324 22010KT 8000 FEW030 TEMPO 2309/2318 22010G25KT 8000 FEW030